createdAt,value
2023-05-22T00:03:10.674Z,95.30
2023-05-22T00:08:02.840Z,96.02
2023-05-22T00:12:54.584Z,97.08
2023-05-22T00:17:47.598Z,97.11
2023-05-22T00:22:39.392Z,97.47
2023-05-22T00:27:31.551Z,98.11
2023-05-22T00:32:23.415Z,99.90
2023-05-22T00:37:15.234Z,99.63
2023-05-22T00:42:07.112Z,98.83
2023-05-22T00:46:58.943Z,98.15
2023-05-22T00:51:50.819Z,97.54
2023-05-22T00:56:43.375Z,96.18
2023-05-22T01:01:38.649Z,95.98
2023-05-22T01:06:32.154Z,94.70
2023-05-22T01:12:30.905Z,96.25
2023-05-22T01:17:52.972Z,97.12
2023-05-22T01:22:50.278Z,97.93
2023-05-22T01:28:11.856Z,98.87
2023-05-22T01:33:06.954Z,99.65
2023-05-22T01:38:00.523Z,100.00
2023-05-22T01:42:52.430Z,100.00
2023-05-22T01:47:44.641Z,100.00
2023-05-22T01:53:12.084Z,100.00
2023-05-22T01:58:19.852Z,100.00
2023-05-22T02:03:19.615Z,100.00
2023-05-22T02:08:14.255Z,100.00
2023-05-22T02:13:06.555Z,100.00
2023-05-22T02:18:01.663Z,100.00
2023-05-22T02:22:53.412Z,100.00
2023-05-22T02:27:49.682Z,100.00
2023-05-22T02:32:42.169Z,100.00
2023-05-22T02:37:34.525Z,100.00
2023-05-22T02:42:26.494Z,100.00
2023-05-22T02:47:18.215Z,100.00
2023-05-22T02:52:09.995Z,100.00
2023-05-22T02:57:02.715Z,100.00
2023-05-22T03:01:55.179Z,100.00
2023-05-22T03:06:47.012Z,100.00
2023-05-22T03:11:38.728Z,100.00
2023-05-22T03:16:30.504Z,100.00
2023-05-22T03:21:22.273Z,100.00
2023-05-22T03:26:13.989Z,100.00
2023-05-22T03:31:09.197Z,100.00
2023-05-22T03:36:01.131Z,100.00
2023-05-22T03:40:52.886Z,100.00
2023-05-22T03:45:44.676Z,100.00
2023-05-22T03:50:36.502Z,100.00
2023-05-22T03:55:30.715Z,100.00
2023-05-22T04:15:32.516Z,100.00
2023-05-22T04:30:38.571Z,100.00
2023-05-22T04:50:51.196Z,99.51
2023-05-22T05:11:08.997Z,69.39
2023-05-22T05:16:02.978Z,65.83
2023-05-22T05:21:02.883Z,63.10
2023-05-22T05:31:04.755Z,56.66
2023-05-22T05:35:56.696Z,54.10
2023-05-22T05:40:50.018Z,54.82
2023-05-22T06:01:04.822Z,52.88
2023-05-22T06:11:07.706Z,54.01
2023-05-22T06:16:07.364Z,54.21
2023-05-22T06:21:04.908Z,54.73
2023-05-22T06:36:09.659Z,56.44
2023-05-22T06:56:31.888Z,57.52
2023-05-22T07:37:15.587Z,57.41
2023-05-22T07:57:50.077Z,58.36
2023-05-22T10:08:25.746Z,52.94
2023-05-22T10:13:19.754Z,53.80
2023-05-22T10:18:13.002Z,53.62
2023-05-22T10:23:06.639Z,53.05
2023-05-22T11:21:31.117Z,46.99
2023-05-22T19:52:57.973Z,60.46
2023-05-22T22:11:15.543Z,84.05
2023-05-22T23:03:29.144Z,88.60
2023-05-22T23:08:20.914Z,89.12
2023-05-22T23:13:12.724Z,89.02
2023-05-22T23:18:04.548Z,88.10
2023-05-22T23:28:02.597Z,90.22
2023-05-22T23:32:54.377Z,92.12
2023-05-22T23:37:46.173Z,94.99
2023-05-22T23:47:59.355Z,95.46
2023-05-22T23:52:51.406Z,96.15
2023-05-22T23:57:43.142Z,95.98
